Bookmark and Share
Track history (hours):
 

Eizo Maru

Last reported at 2014-Apr-19 05:24 UTC. Time now 2014-Apr-19 19:45 UTC.
Position N 34°07' E 135°04'.

Length 80 m; draft 5.2 m.

Type: Tanker. MMSI: 431000976.

NotesDate/timePositionNaut miles runAvg speedWind from/ knotsBaromVisibWave heightAir tempDewpointWater temp
2014-Apr-19 05:24N 34°07' E 135°04'3 0.1
2014-Apr-17 19:21N 34°07' E 135°08'6 0.6
2014-Apr-17 09:34N 34°12' E 135°04'13 9.9
2014-Apr-17 08:18N 34°24' E 135°05'1113.5
2014-Apr-17 07:31N 34°30' E 135°15'9 1.2
2014-Apr-17 00:11N 34°33' E 135°26'5 7.3
2014-Apr-16 23:32N 34°33' E 135°20'1212.7
2014-Apr-16 22:33N 34°26' E 135°08'1413.4
2014-Apr-16 21:29N 34°14' E 134°59'  
2014-Apr-11 10:29N 34°05' E 135°02'24410.9
2014-Apr-10 12:11N 35°14' E 139°46'811.8
2014-Apr-10 11:30N 35°21' E 139°42'1111.0
2014-Apr-10 10:33N 35°31' E 139°46'0 0.1
2014-Apr-10 09:33N 35°32' E 139°46'0 0.0
2014-Apr-10 08:33N 35°32' E 139°46'0 0.0
2014-Apr-10 07:33N 35°32' E 139°46'0 0.0
2014-Apr-10 06:33N 35°32' E 139°46'4 4.0
2014-Apr-10 05:33N 35°30' E 139°51'8 8.2
2014-Apr-10 04:33N 35°31' E 140°01'2 1.6
2014-Apr-10 03:33N 35°31' E 140°02'0 0.0
2014-Apr-10 02:27N 35°31' E 140°02'0 0.0
2014-Apr-10 01:33N 35°31' E 140°02'0 0.0
2014-Apr-10 00:33N 35°31' E 140°02'0 0.0
2014-Apr-09 23:30N 35°31' E 140°02'0 0.0
2014-Apr-09 22:33N 35°31' E 140°02'1 1.4
2014-Apr-09 21:30N 35°32' E 140°01'0 0.0
2014-Apr-09 20:27N 35°32' E 140°01'0 0.1
2014-Apr-09 19:33N 35°32' E 140°01'0 0.0
2014-Apr-09 18:33N 35°32' E 140°01'0 0.0
2014-Apr-09 17:27N 35°32' E 140°01'0 0.1
2014-Apr-09 16:33N 35°32' E 140°01'0 0.0
2014-Apr-09 15:30N 35°32' E 140°01'0 0.0
2014-Apr-09 14:33N 35°32' E 140°01'0 0.0
2014-Apr-09 13:15N 35°32' E 140°01'2 2.7
2014-Apr-09 12:33N 35°31' E 139°59'1110.1
2014-Apr-09 11:31N 35°32' E 139°46'0 0.0
2014-Apr-09 06:19N 35°32' E 139°46'5 6.2
2014-Apr-09 05:33N 35°31' E 139°52'  

Dump ship's entire track history

sailing weather and tide predictions

Eizo Maru — JD2944 — position and weather